createdAt,value
2022-08-29T00:00:09.784Z,83.23
2022-08-29T00:02:46.047Z,85.45
2022-08-29T00:05:12.584Z,84.36
2022-08-29T00:07:39.363Z,85.91
2022-08-29T00:10:07.329Z,84.43
2022-08-29T00:12:33.818Z,84.27
2022-08-29T00:15:00.362Z,86.33
2022-08-29T00:17:26.847Z,85.40
2022-08-29T00:19:53.370Z,87.09
2022-08-29T00:22:19.810Z,87.29
2022-08-29T00:24:46.293Z,87.73
2022-08-29T00:27:12.834Z,89.13
2022-08-29T00:29:39.842Z,88.41
2022-08-29T00:32:06.689Z,89.03
2022-08-29T00:34:33.434Z,89.81
2022-08-29T00:36:59.950Z,89.90
2022-08-29T00:39:26.479Z,88.65
2022-08-29T00:41:53.445Z,90.31
2022-08-29T00:44:20.079Z,90.08
2022-08-29T00:46:52.045Z,87.98
2022-08-29T00:49:24.713Z,90.20
2022-08-29T00:51:52.653Z,89.01
2022-08-29T00:54:19.390Z,88.05
2022-08-29T00:56:46.498Z,90.88
2022-08-29T00:59:36.841Z,90.57
2022-08-29T01:02:04.948Z,92.38
2022-08-29T01:04:32.763Z,89.22
2022-08-29T01:07:00.093Z,90.65
2022-08-29T01:09:28.404Z,90.82
2022-08-29T01:12:14.438Z,91.55
2022-08-29T01:14:59.574Z,91.93
2022-08-29T01:17:31.356Z,91.85
2022-08-29T01:20:00.695Z,91.52
2022-08-29T01:22:58.120Z,93.26
2022-08-29T01:25:27.351Z,94.82
2022-08-29T01:28:33.778Z,96.64
2022-08-29T01:31:13.259Z,96.00
2022-08-29T01:33:49.831Z,93.94
2022-08-29T01:36:24.005Z,95.26
2022-08-29T01:38:50.564Z,95.40
2022-08-29T01:41:20.457Z,97.30
2022-08-29T01:43:51.882Z,97.62
2022-08-29T01:46:26.169Z,94.31
2022-08-29T01:48:52.794Z,95.79
2022-08-29T01:51:20.128Z,96.58
2022-08-29T01:53:47.039Z,96.87
2022-08-29T01:56:19.801Z,96.88
2022-08-29T01:58:48.504Z,98.39
2022-08-29T02:01:18.404Z,98.24
2022-08-29T02:03:48.883Z,97.12
2022-08-29T02:06:15.613Z,98.27
2022-08-29T02:08:44.344Z,98.92
2022-08-29T02:11:11.444Z,97.98
2022-08-29T02:13:40.982Z,98.87
2022-08-29T02:16:07.631Z,98.43
2022-08-29T02:18:34.259Z,98.58
2022-08-29T02:21:01.776Z,98.12
2022-08-29T02:23:31.270Z,98.80
2022-08-29T02:25:58.639Z,97.57
2022-08-29T02:28:25.123Z,98.23
2022-08-29T02:30:56.741Z,98.72
2022-08-29T02:33:24.789Z,99.62
2022-08-29T02:35:53.253Z,99.41
2022-08-29T02:38:20.517Z,100.00
2022-08-29T02:40:48.580Z,100.00
2022-08-29T02:43:18.029Z,100.00
2022-08-29T02:45:45.489Z,100.00
2022-08-29T02:48:12.873Z,100.00
2022-08-29T02:50:41.254Z,100.00
2022-08-29T02:53:07.728Z,100.00
2022-08-29T02:55:34.336Z,100.00
2022-08-29T02:58:01.331Z,100.00
2022-08-29T03:00:28.546Z,100.00
2022-08-29T03:02:56.693Z,100.00
2022-08-29T03:05:27.403Z,100.00
2022-08-29T03:07:55.637Z,100.00
2022-08-29T03:10:23.127Z,100.00
2022-08-29T03:12:49.859Z,100.00
2022-08-29T03:15:17.539Z,100.00
2022-08-29T03:17:44.798Z,100.00
2022-08-29T03:20:12.380Z,100.00
2022-08-29T03:22:39.737Z,100.00
2022-08-29T03:25:07.843Z,100.00
2022-08-29T03:27:34.778Z,100.00
2022-08-29T03:30:01.819Z,100.00
2022-08-29T03:32:28.649Z,100.00
2022-08-29T03:34:55.235Z,100.00
2022-08-29T03:37:22.047Z,100.00
2022-08-29T03:39:50.876Z,100.00
2022-08-29T03:42:17.557Z,100.00
2022-08-29T03:44:44.096Z,100.00
2022-08-29T03:47:10.691Z,100.00
2022-08-29T03:49:37.703Z,100.00
2022-08-29T03:52:05.578Z,100.00
2022-08-29T03:54:33.172Z,100.00
2022-08-29T03:56:59.674Z,100.00
2022-08-29T03:59:26.138Z,100.00
2022-08-29T04:01:52.611Z,100.00
2022-08-29T04:04:39.211Z,100.00
2022-08-29T04:07:06.792Z,100.00
2022-08-29T04:09:33.331Z,100.00
2022-08-29T04:12:00.267Z,100.00
2022-08-29T04:14:26.847Z,100.00
2022-08-29T04:16:53.358Z,100.00
2022-08-29T04:19:21.051Z,100.00
2022-08-29T04:21:48.932Z,100.00
2022-08-29T04:24:16.335Z,100.00
2022-08-29T04:26:42.838Z,100.00
2022-08-29T04:29:11.187Z,100.00
2022-08-29T04:31:39.166Z,100.00
2022-08-29T04:34:07.451Z,100.00
2022-08-29T04:36:38.918Z,100.00
2022-08-29T04:39:06.197Z,100.00
2022-08-29T04:41:33.789Z,100.00
2022-08-29T04:44:01.678Z,100.00
2022-08-29T04:46:28.186Z,100.00
2022-08-29T04:48:55.176Z,100.00
2022-08-29T04:51:22.678Z,100.00
2022-08-29T04:53:53.217Z,100.00
2022-08-29T04:56:21.277Z,100.00
2022-08-29T04:58:48.122Z,100.00
2022-08-29T05:01:17.171Z,100.00
2022-08-29T05:03:44.009Z,100.00
2022-08-29T05:06:12.803Z,100.00
2022-08-29T05:08:41.838Z,100.00
2022-08-29T05:11:22.856Z,100.00
2022-08-29T05:13:53.238Z,100.00
2022-08-29T05:16:20.189Z,100.00
2022-08-29T05:18:46.922Z,100.00
2022-08-29T05:21:15.201Z,100.00
2022-08-29T05:23:41.728Z,100.00
2022-08-29T05:26:08.354Z,100.00
2022-08-29T05:28:35.828Z,100.00
2022-08-29T05:31:02.595Z,100.00
2022-08-29T05:33:29.147Z,100.00
2022-08-29T05:35:56.305Z,100.00
2022-08-29T05:38:22.820Z,100.00
2022-08-29T05:40:49.468Z,100.00
2022-08-29T05:43:16.202Z,100.00
2022-08-29T05:45:42.935Z,100.00
2022-08-29T05:48:09.721Z,100.00
2022-08-29T05:50:44.125Z,100.00
2022-08-29T05:53:13.381Z,100.00
2022-08-29T05:55:44.266Z,100.00
2022-08-29T05:58:11.974Z,100.00
2022-08-29T06:00:46.183Z,100.00
2022-08-29T06:03:13.783Z,100.00
2022-08-29T06:05:41.300Z,100.00
2022-08-29T06:08:08.130Z,100.00
2022-08-29T06:10:39.359Z,100.00
2022-08-29T06:13:05.831Z,100.00
2022-08-29T06:15:33.077Z,100.00
2022-08-29T06:17:59.576Z,100.00
2022-08-29T06:20:26.192Z,100.00
2022-08-29T06:22:52.712Z,100.00
2022-08-29T06:25:38.561Z,100.00
2022-08-29T06:28:05.776Z,100.00
2022-08-29T06:30:33.572Z,100.00
2022-08-29T06:33:01.386Z,100.00
2022-08-29T06:35:28.427Z,100.00
2022-08-29T06:37:55.283Z,100.00
2022-08-29T06:40:21.915Z,100.00
2022-08-29T06:42:48.932Z,100.00
2022-08-29T06:45:15.653Z,100.00
2022-08-29T06:47:43.345Z,100.00
2022-08-29T06:50:10.123Z,100.00
2022-08-29T06:52:36.580Z,100.00
2022-08-29T06:55:03.389Z,100.00
2022-08-29T06:57:29.988Z,100.00
2022-08-29T06:59:56.640Z,100.00
2022-08-29T07:02:23.440Z,100.00
2022-08-29T07:04:49.956Z,100.00
2022-08-29T07:07:16.754Z,99.74
2022-08-29T07:09:44.271Z,99.12
2022-08-29T07:12:10.858Z,98.38
2022-08-29T07:14:37.724Z,97.24
2022-08-29T07:17:04.287Z,96.89
2022-08-29T07:19:30.782Z,96.23
2022-08-29T07:21:58.706Z,95.86
2022-08-29T07:24:26.318Z,94.23
2022-08-29T07:26:52.881Z,92.18
2022-08-29T07:29:21.890Z,92.50
2022-08-29T07:31:49.074Z,91.54
2022-08-29T07:34:15.963Z,90.54
2022-08-29T07:36:43.014Z,89.78
2022-08-29T07:39:16.135Z,88.41
2022-08-29T07:41:44.489Z,87.38
2022-08-29T07:44:12.403Z,85.83
2022-08-29T07:46:40.963Z,85.05
2022-08-29T07:49:07.855Z,82.87
2022-08-29T07:51:35.428Z,82.47
2022-08-29T07:54:02.457Z,82.60
2022-08-29T07:56:37.775Z,79.70
2022-08-29T07:59:04.827Z,79.30
2022-08-29T08:01:31.479Z,78.73
2022-08-29T08:03:58.424Z,77.22
2022-08-29T08:06:27.300Z,73.97
2022-08-29T08:08:54.927Z,72.75
2022-08-29T08:11:23.055Z,72.55
2022-08-29T08:13:50.339Z,70.55
2022-08-29T08:16:20.517Z,69.21
2022-08-29T08:18:48.034Z,69.17
2022-08-29T08:21:14.629Z,68.70
2022-08-29T08:23:42.108Z,67.76
2022-08-29T08:26:10.116Z,67.20
2022-08-29T08:28:36.932Z,65.07
2022-08-29T08:31:07.227Z,64.00
2022-08-29T08:33:40.155Z,62.19
2022-08-29T08:36:19.407Z,63.65
2022-08-29T08:38:46.518Z,64.05
2022-08-29T08:41:27.054Z,63.42
2022-08-29T08:44:07.295Z,63.14
2022-08-29T08:46:43.303Z,62.18
2022-08-29T08:49:34.418Z,62.04
2022-08-29T08:52:06.619Z,63.31
2022-08-29T08:54:42.565Z,62.95
2022-08-29T08:57:12.888Z,62.47
2022-08-29T08:59:43.955Z,60.96
2022-08-29T09:02:28.707Z,59.62
2022-08-29T09:04:57.903Z,59.13
2022-08-29T09:07:28.000Z,59.13
2022-08-29T09:10:01.894Z,58.32
2022-08-29T09:12:39.378Z,57.35
2022-08-29T09:15:13.945Z,56.60
2022-08-29T09:17:48.583Z,56.56
2022-08-29T09:20:22.211Z,56.65
2022-08-29T09:23:00.194Z,56.26
2022-08-29T09:25:29.455Z,57.03
2022-08-29T09:27:58.265Z,57.12
2022-08-29T09:30:31.079Z,56.22
2022-08-29T09:33:02.481Z,57.08
2022-08-29T09:35:47.420Z,57.09
2022-08-29T09:38:25.322Z,56.86
2022-08-29T09:41:01.507Z,56.68
2022-08-29T09:43:39.360Z,57.00
2022-08-29T09:46:17.629Z,55.86
2022-08-29T09:49:09.949Z,55.69
2022-08-29T09:51:40.138Z,56.28
2022-08-29T09:54:27.974Z,56.00
2022-08-29T09:57:01.462Z,56.63
2022-08-29T09:59:34.688Z,56.88
2022-08-29T10:02:27.830Z,56.19
2022-08-29T10:04:59.975Z,56.66
2022-08-29T10:07:30.479Z,56.90
2022-08-29T10:10:18.793Z,56.70
2022-08-29T10:13:06.634Z,56.34
2022-08-29T10:15:51.001Z,54.73
2022-08-29T10:18:36.454Z,53.30
2022-08-29T10:21:18.278Z,51.80
2022-08-29T10:24:04.821Z,51.86
2022-08-29T10:26:52.776Z,51.05
2022-08-29T10:29:31.553Z,50.93
2022-08-29T10:32:07.495Z,51.13
2022-08-29T10:35:24.557Z,49.95
2022-08-29T10:38:13.681Z,49.37
2022-08-29T10:40:48.624Z,48.68
2022-08-29T10:43:59.728Z,47.59
2022-08-29T10:46:44.012Z,46.00
2022-08-29T10:49:44.432Z,46.85
2022-08-29T10:52:26.812Z,46.53
2022-08-29T10:54:56.922Z,47.18
2022-08-29T10:57:47.911Z,46.38
2022-08-29T11:00:25.013Z,45.45
2022-08-29T11:03:07.138Z,44.26
2022-08-29T11:05:40.568Z,45.81
2022-08-29T11:08:17.766Z,44.98
2022-08-29T11:10:49.800Z,44.60
2022-08-29T11:13:45.577Z,44.12
2022-08-29T11:16:23.518Z,42.88
2022-08-29T11:18:55.521Z,43.29
2022-08-29T11:21:34.757Z,43.41
2022-08-29T11:24:04.224Z,42.79
2022-08-29T11:27:07.371Z,41.26
2022-08-29T11:29:54.327Z,41.40
2022-08-29T11:32:52.029Z,40.68
2022-08-29T11:35:24.608Z,40.60
2022-08-29T11:38:07.786Z,39.97
2022-08-29T11:41:31.268Z,38.96
2022-08-29T11:44:15.332Z,39.35
2022-08-29T11:46:52.154Z,38.78
2022-08-29T11:49:33.810Z,38.16
2022-08-29T11:52:12.320Z,38.30
2022-08-29T11:54:41.367Z,39.21
2022-08-29T11:57:07.789Z,39.56
2022-08-29T11:59:49.680Z,39.52
2022-08-29T12:02:28.424Z,38.77
2022-08-29T12:04:57.008Z,39.30
2022-08-29T12:07:36.060Z,37.74
2022-08-29T12:10:07.580Z,37.59
2022-08-29T12:12:49.082Z,37.17
2022-08-29T12:15:26.963Z,37.28
2022-08-29T12:18:03.818Z,37.72
2022-08-29T12:20:30.717Z,38.08
2022-08-29T12:23:06.023Z,37.46
2022-08-29T12:26:03.823Z,35.65
2022-08-29T12:28:58.625Z,34.54
2022-08-29T12:32:18.224Z,33.52
2022-08-29T12:35:04.325Z,33.84
2022-08-29T12:37:56.971Z,32.42
2022-08-29T12:40:23.698Z,33.18
2022-08-29T12:43:34.465Z,30.68
2022-08-29T12:46:10.462Z,30.85
2022-08-29T12:48:57.723Z,29.98
2022-08-29T12:51:39.972Z,29.13
2022-08-29T12:54:08.146Z,29.10
2022-08-29T12:56:42.855Z,28.53
2022-08-29T12:59:16.204Z,27.28
2022-08-29T13:01:49.119Z,26.70
2022-08-29T13:04:21.816Z,27.71
2022-08-29T13:07:04.626Z,26.21
2022-08-29T13:09:44.238Z,26.15
2022-08-29T13:12:10.724Z,26.70
2022-08-29T13:14:49.392Z,25.45
2022-08-29T13:17:18.150Z,26.08
2022-08-29T13:20:22.269Z,25.20
2022-08-29T13:22:49.206Z,25.41
2022-08-29T13:25:17.466Z,25.61
2022-08-29T13:27:48.267Z,25.48
2022-08-29T13:30:22.830Z,24.70
2022-08-29T13:32:51.645Z,24.88
2022-08-29T13:35:19.600Z,25.40
2022-08-29T13:38:10.664Z,24.71
2022-08-29T13:40:48.192Z,24.60
2022-08-29T13:43:33.131Z,24.43
2022-08-29T13:46:20.199Z,25.08
2022-08-29T13:48:47.119Z,25.34
2022-08-29T13:51:13.850Z,25.65
2022-08-29T13:53:45.505Z,26.15
2022-08-29T13:56:30.112Z,25.49
2022-08-29T13:58:58.628Z,26.03
2022-08-29T14:02:08.415Z,25.73
2022-08-29T14:04:36.810Z,25.67
2022-08-29T14:06:59.010Z,26.21
2022-08-29T14:29:53.938Z,27.80
2022-08-29T14:32:20.555Z,28.02
2022-08-29T14:34:51.112Z,27.31
2022-08-29T14:37:18.712Z,27.47
2022-08-29T14:39:45.256Z,27.78
2022-08-29T14:42:16.798Z,27.44
2022-08-29T14:44:43.374Z,27.50
2022-08-29T14:47:10.069Z,27.51
2022-08-29T14:49:36.719Z,27.64
2022-08-29T14:52:04.462Z,27.65
2022-08-29T14:54:31.467Z,27.48
2022-08-29T14:56:58.145Z,27.24
2022-08-29T14:59:25.639Z,27.49
2022-08-29T15:01:55.032Z,27.29
2022-08-29T15:04:35.283Z,27.51
2022-08-29T15:07:09.063Z,27.61
2022-08-29T15:09:35.663Z,27.68
2022-08-29T15:12:03.039Z,28.04
2022-08-29T15:14:29.930Z,27.95
2022-08-29T15:16:56.392Z,28.23
2022-08-29T15:20:24.280Z,28.62
2022-08-29T15:22:10.820Z,28.78
2022-08-29T15:24:37.566Z,28.91
2022-08-29T15:27:04.614Z,29.22
2022-08-29T15:29:31.304Z,29.59
2022-08-29T15:31:57.814Z,30.20
2022-08-29T15:34:25.576Z,30.33
2022-08-29T15:36:53.137Z,30.72
2022-08-29T15:39:20.150Z,30.74
2022-08-29T15:41:46.839Z,30.77
2022-08-29T15:44:13.813Z,31.23
2022-08-29T15:46:50.558Z,31.73
2022-08-29T15:49:19.221Z,31.89
2022-08-29T15:51:46.116Z,32.09
2022-08-29T15:54:13.040Z,32.41
2022-08-29T15:56:40.575Z,32.73
2022-08-29T15:59:09.383Z,33.06
2022-08-29T16:01:45.042Z,33.07
2022-08-29T16:04:13.804Z,33.30
2022-08-29T16:06:40.670Z,33.39
2022-08-29T16:09:15.149Z,33.43
2022-08-29T16:11:44.068Z,33.54
2022-08-29T16:14:46.679Z,33.72
2022-08-29T16:16:57.697Z,33.92
2022-08-29T16:19:24.261Z,34.23
2022-08-29T16:21:50.981Z,33.93
2022-08-29T16:24:17.719Z,34.06
2022-08-29T16:26:45.895Z,34.36
2022-08-29T16:29:12.992Z,34.64
2022-08-29T16:31:39.837Z,34.76
2022-08-29T16:34:06.781Z,34.84
2022-08-29T16:36:33.311Z,34.87
2022-08-29T16:39:00.002Z,34.86
2022-08-29T16:41:28.249Z,35.21
2022-08-29T16:43:55.185Z,35.35
2022-08-29T16:46:25.368Z,35.71
2022-08-29T16:48:52.278Z,35.71
2022-08-29T16:51:21.846Z,35.74
2022-08-29T16:53:48.639Z,35.86
2022-08-29T16:56:16.810Z,35.93
2022-08-29T16:59:02.006Z,36.13
2022-08-29T17:01:35.891Z,36.56
2022-08-29T17:04:04.377Z,36.61
2022-08-29T17:06:32.441Z,36.49
2022-08-29T17:08:59.269Z,36.55
2022-08-29T17:11:25.977Z,37.01
2022-08-29T17:13:52.451Z,37.18
2022-08-29T17:16:19.312Z,37.01
2022-08-29T17:18:46.692Z,37.10
2022-08-29T17:21:13.830Z,37.20
2022-08-29T17:23:40.783Z,37.77
2022-08-29T17:26:10.928Z,37.86
2022-08-29T17:28:38.822Z,38.42
2022-08-29T17:31:06.601Z,38.43
2022-08-29T17:33:33.873Z,38.94
2022-08-29T17:36:01.058Z,39.10
2022-08-29T17:38:27.622Z,39.43
2022-08-29T17:40:58.905Z,39.58
2022-08-29T17:43:27.498Z,40.00
2022-08-29T17:45:54.112Z,40.06
2022-08-29T17:48:21.395Z,40.49
2022-08-29T17:50:49.039Z,40.50
2022-08-29T17:53:17.185Z,40.99
2022-08-29T17:55:44.428Z,41.09
2022-08-29T17:58:10.999Z,41.19
2022-08-29T18:00:38.151Z,41.44
2022-08-29T18:03:04.820Z,41.97
2022-08-29T18:05:31.341Z,41.53
2022-08-29T18:07:58.079Z,42.21
2022-08-29T18:10:25.598Z,42.25
2022-08-29T18:12:52.086Z,42.28
2022-08-29T18:15:18.754Z,42.48
2022-08-29T18:17:45.583Z,43.35
2022-08-29T18:20:16.112Z,43.46
2022-08-29T18:22:43.305Z,43.62
2022-08-29T18:25:11.399Z,43.59
2022-08-29T18:27:41.922Z,43.91
2022-08-29T18:30:13.579Z,44.71
2022-08-29T18:32:41.223Z,44.29
2022-08-29T18:35:08.891Z,44.67
2022-08-29T18:37:35.819Z,45.72
2022-08-29T18:40:04.557Z,45.68
2022-08-29T18:42:40.444Z,46.80
2022-08-29T18:45:10.213Z,47.67
2022-08-29T18:47:37.341Z,47.74
2022-08-29T18:50:24.899Z,49.07
2022-08-29T18:52:52.339Z,49.07
2022-08-29T18:55:19.185Z,49.27
2022-08-29T18:57:47.063Z,49.93
2022-08-29T19:00:14.493Z,51.21
2022-08-29T19:02:41.441Z,51.75
2022-08-29T19:05:08.335Z,52.38
2022-08-29T19:07:34.929Z,53.74
2022-08-29T19:10:01.489Z,52.77
2022-08-29T19:12:28.034Z,54.20
2022-08-29T19:14:54.534Z,53.87
2022-08-29T19:17:21.316Z,54.34
2022-08-29T19:20:10.311Z,54.58
2022-08-29T19:22:38.110Z,55.82
2022-08-29T19:25:06.059Z,55.85
2022-08-29T19:27:43.206Z,56.69
2022-08-29T19:30:12.168Z,56.85
2022-08-29T19:32:39.139Z,57.42
2022-08-29T19:35:06.061Z,57.39
2022-08-29T19:37:33.073Z,57.67
2022-08-29T19:39:59.641Z,57.66
2022-08-29T19:42:28.125Z,57.90
2022-08-29T19:44:55.231Z,59.22
2022-08-29T19:47:23.300Z,58.67
2022-08-29T19:49:50.943Z,59.44
2022-08-29T19:52:17.927Z,61.50
2022-08-29T19:54:44.483Z,59.89
2022-08-29T19:57:13.427Z,61.26
2022-08-29T19:59:41.546Z,60.90
2022-08-29T20:02:09.430Z,61.66
2022-08-29T20:04:36.353Z,61.47
2022-08-29T20:07:03.634Z,62.46
2022-08-29T20:09:31.602Z,63.42
2022-08-29T20:11:59.052Z,63.86
2022-08-29T20:14:25.781Z,64.10
2022-08-29T20:16:52.450Z,63.62
2022-08-29T20:19:21.362Z,64.21
2022-08-29T20:21:49.327Z,64.26
2022-08-29T20:24:16.689Z,64.77
2022-08-29T20:26:44.804Z,65.83
2022-08-29T20:29:12.194Z,66.38
2022-08-29T20:31:40.082Z,66.89
2022-08-29T20:34:06.854Z,65.93
2022-08-29T20:36:52.253Z,66.00
2022-08-29T20:39:21.403Z,66.36
2022-08-29T20:41:55.557Z,68.17
2022-08-29T20:44:31.474Z,67.86
2022-08-29T20:47:00.273Z,68.56
2022-08-29T20:49:27.150Z,67.82
2022-08-29T20:51:53.802Z,68.67
2022-08-29T20:54:23.666Z,67.57
2022-08-29T20:56:53.688Z,68.04
2022-08-29T20:59:22.548Z,69.13
2022-08-29T21:01:52.262Z,69.29
2022-08-29T21:04:37.760Z,68.50
2022-08-29T21:07:07.449Z,68.52
2022-08-29T21:09:35.951Z,69.35
2022-08-29T21:12:02.805Z,69.29
2022-08-29T21:14:29.326Z,70.28
2022-08-29T21:16:57.541Z,69.84
2022-08-29T21:19:26.346Z,69.98
2022-08-29T21:21:53.874Z,72.18
2022-08-29T21:24:20.555Z,72.25
2022-08-29T21:26:47.992Z,72.83
2022-08-29T21:29:14.746Z,71.74
2022-08-29T21:31:41.745Z,73.24
2022-08-29T21:34:12.933Z,73.94
2022-08-29T21:36:40.215Z,72.19
2022-08-29T21:39:09.357Z,73.09
2022-08-29T21:41:45.300Z,74.47
2022-08-29T21:44:13.539Z,74.14
2022-08-29T21:46:45.738Z,75.02
2022-08-29T21:49:17.090Z,75.00
2022-08-29T21:51:44.870Z,75.38
2022-08-29T21:54:14.033Z,75.50
2022-08-29T21:56:41.657Z,75.64
2022-08-29T21:59:08.701Z,76.19
2022-08-29T22:01:38.807Z,76.78
2022-08-29T22:04:08.847Z,76.80
2022-08-29T22:06:39.561Z,77.40
2022-08-29T22:09:10.184Z,78.70
2022-08-29T22:11:38.492Z,76.72
2022-08-29T22:14:09.166Z,78.26
2022-08-29T22:16:37.224Z,78.43
2022-08-29T22:19:11.980Z,80.93
2022-08-29T22:21:47.174Z,80.67
2022-08-29T22:24:16.434Z,80.15
2022-08-29T22:26:44.023Z,80.38
2022-08-29T22:29:13.613Z,80.07
2022-08-29T22:31:42.634Z,81.59
2022-08-29T22:34:10.283Z,82.55
2022-08-29T22:36:36.810Z,81.62
2022-08-29T22:39:04.189Z,81.95
2022-08-29T22:41:31.207Z,82.73
2022-08-29T22:44:35.881Z,82.30
2022-08-29T22:46:45.335Z,83.49
2022-08-29T22:49:12.016Z,83.28
2022-08-29T22:51:38.551Z,82.88
2022-08-29T22:54:23.711Z,83.79
2022-08-29T22:56:50.309Z,84.00
2022-08-29T22:59:21.620Z,84.21
2022-08-29T23:01:48.449Z,85.01
2022-08-29T23:04:15.167Z,83.94
2022-08-29T23:06:41.667Z,83.80
2022-08-29T23:09:08.444Z,84.85
2022-08-29T23:11:35.272Z,85.32
2022-08-29T23:14:02.414Z,84.62
2022-08-29T23:16:32.998Z,85.07
2022-08-29T23:19:00.894Z,85.91
2022-08-29T23:21:29.057Z,86.03
2022-08-29T23:23:58.187Z,85.65
2022-08-29T23:26:25.487Z,85.94
2022-08-29T23:28:52.075Z,86.37
2022-08-29T23:31:20.237Z,86.14
2022-08-29T23:33:46.747Z,86.06
2022-08-29T23:36:13.218Z,86.86
2022-08-29T23:38:40.021Z,86.65
2022-08-29T23:41:07.127Z,87.60
2022-08-29T23:43:36.761Z,86.63
2022-08-29T23:46:04.372Z,87.44
2022-08-29T23:48:32.096Z,87.72
2022-08-29T23:50:59.250Z,87.63
2022-08-29T23:53:25.961Z,88.27
2022-08-29T23:55:53.311Z,88.51
2022-08-29T23:58:19.838Z,87.94
